createdAt,value
2018-03-14T00:00:02.055Z,980.67
2018-03-14T00:01:02.083Z,980.72
2018-03-14T00:02:02.111Z,980.73
2018-03-14T00:03:02.157Z,980.71
2018-03-14T00:04:02.167Z,980.76
2018-03-14T00:05:02.190Z,980.79
2018-03-14T00:06:02.229Z,980.75
2018-03-14T00:07:02.245Z,980.75
2018-03-14T00:08:02.271Z,980.76
2018-03-14T00:09:02.298Z,980.80
2018-03-14T00:10:02.326Z,980.83
2018-03-14T00:11:02.351Z,980.80
2018-03-14T00:12:02.379Z,980.84
2018-03-14T00:13:02.405Z,980.78
2018-03-14T00:14:02.462Z,980.78
2018-03-14T00:15:02.461Z,980.76
2018-03-14T00:16:02.487Z,980.78
2018-03-14T00:17:02.513Z,980.79
2018-03-14T00:18:02.540Z,980.74
2018-03-14T00:19:02.567Z,980.73
2018-03-14T00:20:02.594Z,980.77
2018-03-14T00:21:02.621Z,980.74
2018-03-14T00:22:02.649Z,980.74
2018-03-14T00:23:02.674Z,980.80
2018-03-14T00:24:02.701Z,980.74
2018-03-14T00:25:02.728Z,980.75
2018-03-14T00:26:02.756Z,980.79
2018-03-14T00:27:02.782Z,980.79
2018-03-14T00:28:02.808Z,980.78
2018-03-14T00:29:02.861Z,980.80
2018-03-14T00:30:02.896Z,980.79
2018-03-14T00:31:02.890Z,980.79
2018-03-14T00:32:02.939Z,980.79
2018-03-14T00:33:02.944Z,980.80
2018-03-14T00:34:03.000Z,980.79
2018-03-14T00:35:03.040Z,980.80
2018-03-14T00:36:03.025Z,980.81
2018-03-14T00:37:03.051Z,980.82
2018-03-14T00:38:03.080Z,980.82
2018-03-14T00:39:03.106Z,980.80
2018-03-14T00:40:03.133Z,980.79
2018-03-14T00:41:03.162Z,980.80
2018-03-14T00:42:03.187Z,980.78
2018-03-14T00:43:03.213Z,980.78
2018-03-14T00:44:03.240Z,980.79
2018-03-14T00:45:03.267Z,980.83
2018-03-14T00:46:03.294Z,980.78
2018-03-14T00:47:03.322Z,980.84
2018-03-14T00:48:03.347Z,980.81
2018-03-14T00:49:03.375Z,980.87
2018-03-14T00:50:03.402Z,980.89
2018-03-14T00:51:03.428Z,980.84
2018-03-14T00:52:03.455Z,980.90
2018-03-14T00:53:03.481Z,980.87
2018-03-14T00:54:03.509Z,980.86
2018-03-14T00:55:03.536Z,980.88
2018-03-14T00:56:03.572Z,980.86
2018-03-14T00:57:03.590Z,980.90
2018-03-14T00:58:03.617Z,980.91
2018-03-14T00:59:03.643Z,980.92
2018-03-14T01:00:03.671Z,980.92
2018-03-14T01:01:03.723Z,980.91
2018-03-14T01:02:03.724Z,980.94
2018-03-14T01:03:03.756Z,980.95
2018-03-14T01:04:03.778Z,980.92
2018-03-14T01:05:03.805Z,980.94
2018-03-14T01:06:03.832Z,980.93
2018-03-14T01:07:03.860Z,980.96
2018-03-14T01:08:03.885Z,980.95
2018-03-14T01:09:03.938Z,980.95
2018-03-14T01:10:03.940Z,980.94
2018-03-14T01:11:03.965Z,980.98
2018-03-14T01:12:03.993Z,980.97
2018-03-14T01:13:04.019Z,981.02
2018-03-14T01:14:04.053Z,981.02
2018-03-14T01:15:04.073Z,981.02
2018-03-14T01:16:04.099Z,980.99
2018-03-14T01:17:04.128Z,980.96
2018-03-14T01:18:04.154Z,981.02
2018-03-14T01:19:04.183Z,981.00
2018-03-14T01:20:04.208Z,981.03
2018-03-14T01:21:04.272Z,981.03
2018-03-14T01:22:04.287Z,981.06
2018-03-14T01:23:04.288Z,981.07
2018-03-14T01:24:04.315Z,981.07
2018-03-14T01:25:04.342Z,981.08
2018-03-14T01:26:04.380Z,981.08
2018-03-14T01:27:04.396Z,981.09
2018-03-14T01:28:04.423Z,981.12
2018-03-14T01:29:04.451Z,981.12
2018-03-14T01:30:04.478Z,981.13
2018-03-14T01:31:04.503Z,981.10
2018-03-14T01:32:04.535Z,981.11
2018-03-14T01:33:04.558Z,981.16
2018-03-14T01:34:04.586Z,981.16
2018-03-14T01:35:04.614Z,981.11
2018-03-14T01:36:04.639Z,981.20
2018-03-14T01:37:04.664Z,981.22
2018-03-14T01:38:04.694Z,981.23
2018-03-14T01:39:04.718Z,981.25
2018-03-14T01:40:04.745Z,981.25
2018-03-14T01:41:04.776Z,981.23
2018-03-14T01:42:04.800Z,981.27
2018-03-14T01:43:04.825Z,981.27
2018-03-14T01:44:04.864Z,981.25
2018-03-14T01:45:04.883Z,981.35
2018-03-14T01:46:04.910Z,981.29
2018-03-14T01:47:04.933Z,981.32
2018-03-14T01:48:04.961Z,981.32
2018-03-14T01:49:04.987Z,981.34
2018-03-14T01:50:05.018Z,981.37
2018-03-14T01:51:05.041Z,981.36
2018-03-14T01:52:05.071Z,981.39
2018-03-14T01:53:05.118Z,981.39
2018-03-14T01:54:05.136Z,981.33
2018-03-14T01:55:05.148Z,981.35
2018-03-14T01:56:05.177Z,981.37
2018-03-14T01:57:05.238Z,981.33
2018-03-14T01:58:05.229Z,981.40
2018-03-14T01:59:05.291Z,981.44
2018-03-14T02:00:05.282Z,981.43
2018-03-14T02:01:05.309Z,981.45
2018-03-14T02:02:05.337Z,981.44
2018-03-14T02:03:05.363Z,981.41
2018-03-14T02:04:05.390Z,981.46
2018-03-14T02:05:05.417Z,981.51
2018-03-14T02:06:05.445Z,981.45
2018-03-14T02:07:05.471Z,981.44
2018-03-14T02:08:05.498Z,981.48
2018-03-14T02:09:05.524Z,981.53
2018-03-14T02:10:05.580Z,981.51
2018-03-14T02:11:05.578Z,981.54
2018-03-14T02:12:05.604Z,981.50
2018-03-14T02:13:05.636Z,981.53
2018-03-14T02:14:05.665Z,981.50
2018-03-14T02:15:05.685Z,981.52
2018-03-14T02:16:05.712Z,981.56
2018-03-14T02:17:05.739Z,981.52
2018-03-14T02:18:05.766Z,981.53
2018-03-14T02:19:05.793Z,981.53
2018-03-14T02:20:05.820Z,981.55
2018-03-14T02:21:05.846Z,981.52
2018-03-14T02:22:05.874Z,981.55
2018-03-14T02:23:05.900Z,981.57
2018-03-14T02:24:05.927Z,981.60
2018-03-14T02:25:05.954Z,981.59
2018-03-14T02:26:05.981Z,981.60
2018-03-14T02:27:06.007Z,981.62
2018-03-14T02:28:06.035Z,981.62
2018-03-14T02:29:06.063Z,981.61
2018-03-14T02:30:06.090Z,981.66
2018-03-14T02:31:06.114Z,981.69
2018-03-14T02:32:06.142Z,981.64
2018-03-14T02:33:06.201Z,981.70
2018-03-14T02:34:06.210Z,981.69
2018-03-14T02:35:06.223Z,981.67
2018-03-14T02:36:06.249Z,981.73
2018-03-14T02:37:06.276Z,981.72
2018-03-14T02:38:06.302Z,981.74
2018-03-14T02:39:06.330Z,981.72
2018-03-14T02:40:06.356Z,981.72
2018-03-14T02:41:06.383Z,981.72
2018-03-14T02:42:06.412Z,981.72
2018-03-14T02:43:06.437Z,981.75
2018-03-14T02:44:06.464Z,981.73
2018-03-14T02:45:06.492Z,981.74
2018-03-14T02:46:06.568Z,981.80
2018-03-14T02:47:06.544Z,981.80
2018-03-14T02:48:06.571Z,981.80
2018-03-14T02:49:06.601Z,981.81
2018-03-14T02:50:06.631Z,981.84
2018-03-14T02:51:06.651Z,981.86
2018-03-14T02:52:06.678Z,981.79
2018-03-14T02:53:06.706Z,981.84
2018-03-14T02:54:06.733Z,981.85
2018-03-14T02:55:06.783Z,981.84
2018-03-14T02:56:06.787Z,981.89
2018-03-14T02:57:06.813Z,981.92
2018-03-14T02:58:06.842Z,981.90
2018-03-14T02:59:06.868Z,981.99
2018-03-14T03:00:06.893Z,981.98
2018-03-14T03:01:06.923Z,981.96
2018-03-14T03:02:06.947Z,981.97
2018-03-14T03:03:06.973Z,981.99
2018-03-14T03:04:07.000Z,981.98
2018-03-14T03:05:07.047Z,982.00
2018-03-14T03:06:07.055Z,982.04
2018-03-14T03:07:07.081Z,982.07
2018-03-14T03:08:07.108Z,982.09
2018-03-14T03:09:07.138Z,982.09
2018-03-14T03:10:07.162Z,982.11
2018-03-14T03:11:07.188Z,982.18
2018-03-14T03:12:07.215Z,982.18
2018-03-14T03:13:07.242Z,982.21
2018-03-14T03:14:07.269Z,982.17
2018-03-14T03:15:07.314Z,982.17
2018-03-14T03:16:07.322Z,982.22
2018-03-14T03:17:07.350Z,982.24
2018-03-14T03:18:07.377Z,982.23
2018-03-14T03:19:07.403Z,982.27
2018-03-14T03:20:07.430Z,982.27
2018-03-14T03:21:07.456Z,982.30
2018-03-14T03:22:07.484Z,982.29
2018-03-14T03:23:07.510Z,982.29
2018-03-14T03:24:07.537Z,982.28
2018-03-14T03:25:07.564Z,982.28
2018-03-14T03:26:07.591Z,982.25
2018-03-14T03:27:07.618Z,982.32
2018-03-14T03:28:07.645Z,982.36
2018-03-14T03:29:07.676Z,982.34
2018-03-14T03:30:07.699Z,982.34
2018-03-14T03:31:07.761Z,982.30
2018-03-14T03:32:07.752Z,982.30
2018-03-14T03:33:07.780Z,982.31
2018-03-14T03:34:07.820Z,982.30
2018-03-14T03:35:07.833Z,982.34
2018-03-14T03:36:07.859Z,982.41
2018-03-14T03:37:07.887Z,982.34
2018-03-14T03:38:07.913Z,982.38
2018-03-14T03:39:07.940Z,982.34
2018-03-14T03:40:07.966Z,982.36
2018-03-14T03:41:07.994Z,982.38
2018-03-14T03:42:08.022Z,982.38
2018-03-14T03:43:08.047Z,982.42
2018-03-14T03:44:08.075Z,982.39
2018-03-14T03:45:08.102Z,982.41
2018-03-14T03:46:08.166Z,982.53
2018-03-14T03:47:08.155Z,982.52
2018-03-14T03:48:08.186Z,982.52
2018-03-14T03:49:08.209Z,982.57
2018-03-14T03:50:08.270Z,982.55
2018-03-14T03:51:08.294Z,982.51
2018-03-14T03:52:08.302Z,982.57
2018-03-14T03:53:08.318Z,982.60
2018-03-14T03:54:08.344Z,982.61
2018-03-14T03:55:08.371Z,982.59
2018-03-14T03:56:08.397Z,982.61
2018-03-14T03:57:08.425Z,982.61
2018-03-14T03:58:08.453Z,982.58
2018-03-14T03:59:08.478Z,982.67
2018-03-14T04:00:08.505Z,982.65
2018-03-14T04:01:08.533Z,982.68
2018-03-14T04:02:08.559Z,982.67
2018-03-14T04:03:08.586Z,982.72
2018-03-14T04:04:08.617Z,982.72
2018-03-14T04:05:08.640Z,982.71
2018-03-14T04:06:08.667Z,982.74
2018-03-14T04:07:08.696Z,982.71
2018-03-14T04:08:08.723Z,982.73
2018-03-14T04:09:08.748Z,982.72
2018-03-14T04:10:08.774Z,982.75
2018-03-14T04:11:08.803Z,982.74
2018-03-14T04:12:08.828Z,982.76
2018-03-14T04:13:08.855Z,982.81
2018-03-14T04:14:08.882Z,982.85
2018-03-14T04:15:08.908Z,982.82
2018-03-14T04:16:08.937Z,982.85
2018-03-14T04:17:08.963Z,982.88
2018-03-14T04:18:08.991Z,982.88
2018-03-14T04:19:09.019Z,982.87
2018-03-14T04:20:09.082Z,982.86
2018-03-14T04:21:09.071Z,982.87
2018-03-14T04:22:09.098Z,982.89
2018-03-14T04:23:09.125Z,982.91
2018-03-14T04:24:09.151Z,982.94
2018-03-14T04:25:09.179Z,982.92
2018-03-14T04:26:09.205Z,982.91
2018-03-14T04:27:09.233Z,983.00
2018-03-14T04:28:09.260Z,983.03
2018-03-14T04:29:09.295Z,983.04
2018-03-14T04:30:09.316Z,983.01
2018-03-14T04:31:09.339Z,983.07
2018-03-14T04:32:09.367Z,983.06
2018-03-14T04:33:09.397Z,983.11
2018-03-14T04:34:09.421Z,983.06
2018-03-14T04:35:09.477Z,983.04
2018-03-14T04:36:09.476Z,983.10
2018-03-14T04:37:09.502Z,983.12
2018-03-14T04:38:09.529Z,983.17
2018-03-14T04:39:09.558Z,983.14
2018-03-14T04:40:09.600Z,983.14
2018-03-14T04:41:09.610Z,983.24
2018-03-14T04:42:09.637Z,983.21
2018-03-14T04:43:09.664Z,983.24
2018-03-14T04:44:09.690Z,983.27
2018-03-14T04:45:09.717Z,983.30
2018-03-14T04:46:09.744Z,983.34
2018-03-14T04:47:09.770Z,983.37
2018-03-14T04:48:09.798Z,983.37
2018-03-14T04:49:09.855Z,983.43
2018-03-14T04:50:09.852Z,983.41
2018-03-14T04:51:09.878Z,983.40
2018-03-14T04:52:09.906Z,983.43
2018-03-14T04:53:09.955Z,983.43
2018-03-14T04:54:09.960Z,983.48
2018-03-14T04:55:09.986Z,983.52
2018-03-14T04:56:10.013Z,983.47
2018-03-14T04:57:10.040Z,983.50
2018-03-14T04:58:10.067Z,983.51
2018-03-14T04:59:10.094Z,983.51
2018-03-14T05:00:10.120Z,983.51
2018-03-14T05:01:10.148Z,983.57
2018-03-14T05:02:10.175Z,983.57
2018-03-14T05:03:10.203Z,983.62
2018-03-14T05:04:10.276Z,983.62
2018-03-14T05:05:10.256Z,983.63
2018-03-14T05:06:10.283Z,983.64
2018-03-14T05:07:10.309Z,983.69
2018-03-14T05:08:10.340Z,983.71
2018-03-14T05:09:10.364Z,983.71
2018-03-14T05:10:10.393Z,983.77
2018-03-14T05:11:10.417Z,983.76
2018-03-14T05:12:10.446Z,983.73
2018-03-14T05:13:10.472Z,983.76
2018-03-14T05:14:10.519Z,983.77
2018-03-14T05:15:10.525Z,983.76
2018-03-14T05:16:10.553Z,983.85
2018-03-14T05:17:10.585Z,983.83
2018-03-14T05:18:10.606Z,983.86
2018-03-14T05:19:10.633Z,983.82
2018-03-14T05:20:10.661Z,983.84
2018-03-14T05:21:10.688Z,983.86
2018-03-14T05:22:10.715Z,983.84
2018-03-14T05:23:10.741Z,983.90
2018-03-14T05:24:10.769Z,983.88
2018-03-14T05:25:10.795Z,983.87
2018-03-14T05:26:10.825Z,983.94
2018-03-14T05:27:10.849Z,983.93
2018-03-14T05:28:10.875Z,983.93
2018-03-14T05:29:10.903Z,983.97
2018-03-14T05:30:10.931Z,983.99
2018-03-14T05:31:10.984Z,984.02
2018-03-14T05:32:11.004Z,984.04
2018-03-14T05:33:11.011Z,984.01
2018-03-14T05:34:11.039Z,984.05
2018-03-14T05:35:11.064Z,984.10
2018-03-14T05:36:11.092Z,984.12
2018-03-14T05:37:11.118Z,984.12
2018-03-14T05:38:11.147Z,984.16
2018-03-14T05:39:11.176Z,984.19
2018-03-14T05:40:11.200Z,984.20
2018-03-14T05:41:11.227Z,984.24
2018-03-14T05:42:11.254Z,984.27
2018-03-14T05:43:11.280Z,984.28
2018-03-14T05:44:11.308Z,984.25
2018-03-14T05:45:11.337Z,984.29
2018-03-14T05:46:11.361Z,984.35
2018-03-14T05:47:11.388Z,984.32
2018-03-14T05:48:11.416Z,984.30
2018-03-14T05:49:11.442Z,984.32
2018-03-14T05:50:11.470Z,984.36
2018-03-14T05:51:11.499Z,984.46
2018-03-14T05:52:11.523Z,984.45
2018-03-14T05:53:11.581Z,984.41
2018-03-14T05:54:11.591Z,984.42
2018-03-14T05:55:11.605Z,984.43
2018-03-14T05:56:11.638Z,984.46
2018-03-14T05:57:11.661Z,984.48
2018-03-14T05:58:11.707Z,984.48
2018-03-14T05:59:11.713Z,984.53
2018-03-14T06:00:11.740Z,984.54
2018-03-14T06:01:11.768Z,984.64
2018-03-14T06:02:11.795Z,984.68
2018-03-14T06:03:11.821Z,984.61
2018-03-14T06:04:11.852Z,984.62
2018-03-14T06:05:11.892Z,984.65
2018-03-14T06:06:11.912Z,984.65
2018-03-14T06:07:11.929Z,984.71
2018-03-14T06:08:11.965Z,984.69
2018-03-14T06:09:11.985Z,984.70
2018-03-14T06:10:12.011Z,984.75
2018-03-14T06:11:12.039Z,984.75
2018-03-14T06:12:12.072Z,984.78
2018-03-14T06:13:12.095Z,984.76
2018-03-14T06:14:12.128Z,984.75
2018-03-14T06:15:12.147Z,984.78
2018-03-14T06:16:12.175Z,984.82
2018-03-14T06:17:12.201Z,984.88
2018-03-14T06:18:12.230Z,984.86
2018-03-14T06:19:12.255Z,984.81
2018-03-14T06:20:12.283Z,984.83
2018-03-14T06:21:12.312Z,984.88
2018-03-14T06:22:12.338Z,984.83
2018-03-14T06:23:12.364Z,984.96
2018-03-14T06:24:12.391Z,984.94
2018-03-14T06:25:12.419Z,984.96
2018-03-14T06:26:12.450Z,985.01
2018-03-14T06:27:12.473Z,985.03
2018-03-14T06:28:12.500Z,985.03
2018-03-14T06:29:12.528Z,985.10
2018-03-14T06:30:12.555Z,985.08
2018-03-14T06:31:12.610Z,985.12
2018-03-14T06:32:12.609Z,985.10
2018-03-14T06:33:12.636Z,985.15
2018-03-14T06:34:12.665Z,985.19
2018-03-14T06:35:12.690Z,985.12
2018-03-14T06:36:12.719Z,985.13
2018-03-14T06:37:12.813Z,985.23
2018-03-14T06:38:12.776Z,985.23
2018-03-14T06:39:12.800Z,985.20
2018-03-14T06:40:12.827Z,985.28
2018-03-14T06:41:12.855Z,985.22
2018-03-14T06:42:12.883Z,985.26
2018-03-14T06:43:12.910Z,985.31
2018-03-14T06:44:12.936Z,985.33
2018-03-14T06:45:12.963Z,985.31
2018-03-14T06:46:12.991Z,985.28
2018-03-14T06:47:13.018Z,985.32
2018-03-14T06:48:13.050Z,985.31
2018-03-14T06:49:13.073Z,985.31
2018-03-14T06:50:13.102Z,985.33
2018-03-14T06:51:13.127Z,985.35
2018-03-14T06:52:13.155Z,985.48
2018-03-14T06:53:13.204Z,985.39
2018-03-14T06:54:13.209Z,985.41
2018-03-14T06:55:13.236Z,985.45
2018-03-14T06:56:13.264Z,985.43
2018-03-14T06:57:13.294Z,985.44
2018-03-14T06:58:13.321Z,985.47
2018-03-14T06:59:13.346Z,985.44
2018-03-14T07:00:13.373Z,985.51
2018-03-14T07:01:13.400Z,985.47
2018-03-14T07:02:13.427Z,985.44
2018-03-14T07:03:13.455Z,985.44
2018-03-14T07:04:13.482Z,985.44
2018-03-14T07:05:13.510Z,985.49
2018-03-14T07:06:13.538Z,985.48
2018-03-14T07:07:13.602Z,985.52
2018-03-14T07:08:13.615Z,985.50
2018-03-14T07:09:13.662Z,985.47
2018-03-14T07:10:13.650Z,985.55
2018-03-14T07:11:13.692Z,985.56
2018-03-14T07:12:13.700Z,985.58
2018-03-14T07:13:13.742Z,985.59
2018-03-14T07:14:13.758Z,985.60
2018-03-14T07:15:13.782Z,985.60
2018-03-14T07:16:13.809Z,985.62
2018-03-14T07:17:13.838Z,985.66
2018-03-14T07:18:13.865Z,985.65
2018-03-14T07:19:13.893Z,985.62
2018-03-14T07:20:13.920Z,985.72
2018-03-14T07:21:13.946Z,985.69
2018-03-14T07:22:13.980Z,985.69
2018-03-14T07:23:14.001Z,985.72
2018-03-14T07:24:14.030Z,985.75
2018-03-14T07:25:14.057Z,985.72
2018-03-14T07:26:14.084Z,985.78
2018-03-14T07:27:14.112Z,985.77
2018-03-14T07:28:14.156Z,985.76
2018-03-14T07:29:14.167Z,985.77
2018-03-14T07:30:14.194Z,985.80
2018-03-14T07:31:14.222Z,985.81
2018-03-14T07:32:14.249Z,985.85
2018-03-14T07:33:14.277Z,985.86
2018-03-14T07:34:14.305Z,985.85
2018-03-14T07:35:14.330Z,985.94
2018-03-14T07:36:14.358Z,985.92
2018-03-14T07:37:14.388Z,985.95
2018-03-14T07:38:14.414Z,986.02
2018-03-14T07:39:14.441Z,986.01
2018-03-14T07:40:14.468Z,986.04
2018-03-14T07:41:14.498Z,986.03
2018-03-14T07:42:14.523Z,986.08
2018-03-14T07:43:14.553Z,986.08
2018-03-14T07:44:14.578Z,986.09
2018-03-14T07:45:14.605Z,986.08
2018-03-14T07:46:14.634Z,986.21
2018-03-14T07:47:14.695Z,986.16
2018-03-14T07:48:14.690Z,986.26
2018-03-14T07:49:14.715Z,986.20
2018-03-14T07:50:14.745Z,986.16
2018-03-14T07:51:14.769Z,986.20
2018-03-14T07:52:14.815Z,986.21
2018-03-14T07:53:14.830Z,986.18
2018-03-14T07:54:14.855Z,986.19
2018-03-14T07:55:14.883Z,986.19
2018-03-14T07:56:14.906Z,986.20
2018-03-14T07:57:14.935Z,986.25
2018-03-14T07:58:14.963Z,986.22
2018-03-14T07:59:14.988Z,986.24
2018-03-14T08:00:15.018Z,986.27
2018-03-14T08:01:15.262Z,986.32
2018-03-14T08:02:15.106Z,986.32
2018-03-14T08:03:15.099Z,986.37
2018-03-14T08:04:15.127Z,986.38
2018-03-14T08:05:15.156Z,986.42
2018-03-14T08:06:15.182Z,986.44
2018-03-14T08:07:15.208Z,986.48
2018-03-14T08:08:15.236Z,986.49
2018-03-14T08:09:15.267Z,986.52
2018-03-14T08:10:15.293Z,986.50
2018-03-14T08:11:15.319Z,986.52
2018-03-14T08:12:15.346Z,986.53
2018-03-14T08:13:15.377Z,986.55
2018-03-14T08:14:15.402Z,986.58
2018-03-14T08:15:15.428Z,986.60
2018-03-14T08:16:15.458Z,986.60
2018-03-14T08:17:15.486Z,986.65
2018-03-14T08:18:15.513Z,986.68
2018-03-14T08:19:15.584Z,986.63
2018-03-14T08:20:15.583Z,986.70
2018-03-14T08:21:16.276Z,986.67
2018-03-14T08:22:15.622Z,986.70
2018-03-14T08:23:15.649Z,986.73
2018-03-14T08:24:15.682Z,986.75
2018-03-14T08:25:15.705Z,986.73
2018-03-14T08:26:15.733Z,986.77
2018-03-14T08:27:15.758Z,986.88
2018-03-14T08:28:15.791Z,986.84
2018-03-14T08:29:15.815Z,986.84
2018-03-14T08:30:15.843Z,986.91
2018-03-14T08:31:15.869Z,986.90
2018-03-14T08:32:15.898Z,986.90
2018-03-14T08:33:15.926Z,986.98
2018-03-14T08:34:15.953Z,986.97
2018-03-14T08:35:15.980Z,987.00
2018-03-14T08:36:16.019Z,986.97
2018-03-14T08:37:16.061Z,987.03
2018-03-14T08:38:16.063Z,987.00
2018-03-14T08:39:16.093Z,987.07
2018-03-14T08:40:16.118Z,987.07
2018-03-14T08:41:16.148Z,987.00
2018-03-14T08:42:16.174Z,987.13
2018-03-14T08:43:16.204Z,987.13
2018-03-14T08:44:16.236Z,987.09
2018-03-14T08:45:16.265Z,987.12
2018-03-14T08:46:16.285Z,987.02
2018-03-14T08:47:16.331Z,987.16
2018-03-14T08:48:16.338Z,987.11
2018-03-14T08:49:16.387Z,987.11
2018-03-14T08:50:16.395Z,987.17
2018-03-14T08:51:16.425Z,987.19
2018-03-14T08:52:16.506Z,987.19
2018-03-14T08:53:16.480Z,987.18
2018-03-14T08:54:16.536Z,987.20
2018-03-14T08:55:16.532Z,987.23
2018-03-14T08:56:16.559Z,987.24
2018-03-14T08:57:16.591Z,987.24
2018-03-14T08:58:16.615Z,987.25
2018-03-14T08:59:16.645Z,987.23
2018-03-14T09:00:16.669Z,987.30
2018-03-14T09:01:16.698Z,987.34
2018-03-14T09:02:16.726Z,987.34
2018-03-14T09:03:16.755Z,987.36
2018-03-14T09:04:16.815Z,987.36
2018-03-14T09:05:16.810Z,987.39
2018-03-14T09:06:16.836Z,987.41
2018-03-14T09:07:16.862Z,987.44
2018-03-14T09:08:16.890Z,987.43
2018-03-14T09:09:16.920Z,987.41
2018-03-14T09:10:16.949Z,987.47
2018-03-14T09:11:16.973Z,987.46
2018-03-14T09:12:17.006Z,987.47
2018-03-14T09:13:17.029Z,987.44
2018-03-14T09:14:17.094Z,987.44
2018-03-14T09:15:17.087Z,987.52
2018-03-14T09:16:17.114Z,987.45
2018-03-14T09:17:17.140Z,987.57
2018-03-14T09:18:17.183Z,987.57
2018-03-14T09:19:17.204Z,987.62
2018-03-14T09:20:17.258Z,987.61
2018-03-14T09:21:17.270Z,987.65
2018-03-14T09:22:17.278Z,987.66
2018-03-14T09:23:17.311Z,987.65
2018-03-14T09:24:17.334Z,987.66
2018-03-14T09:25:17.360Z,987.69
2018-03-14T09:26:17.434Z,987.70
2018-03-14T09:27:17.417Z,987.70
2018-03-14T09:28:17.448Z,987.73
2018-03-14T09:29:17.472Z,987.72
2018-03-14T09:30:17.499Z,987.77
2018-03-14T09:31:17.529Z,987.81
2018-03-14T09:32:17.557Z,987.78
2018-03-14T09:33:17.613Z,987.78
2018-03-14T09:34:17.613Z,987.79
2018-03-14T09:35:17.636Z,987.81
2018-03-14T09:36:17.664Z,987.80
2018-03-14T09:37:17.692Z,987.84
2018-03-14T09:38:17.721Z,987.85
2018-03-14T09:39:17.755Z,987.88
2018-03-14T09:40:17.777Z,987.87
2018-03-14T09:41:17.804Z,987.91
2018-03-14T09:42:17.830Z,987.88
2018-03-14T09:43:17.860Z,987.90
2018-03-14T09:44:17.886Z,987.85
2018-03-14T09:45:17.973Z,987.95
2018-03-14T09:46:17.945Z,987.94
2018-03-14T09:47:17.970Z,987.98
2018-03-14T09:48:17.997Z,987.99
2018-03-14T09:49:18.025Z,988.06
2018-03-14T09:50:18.054Z,988.05
2018-03-14T09:51:18.082Z,988.04
2018-03-14T09:52:18.109Z,988.03
2018-03-14T09:53:18.137Z,988.09
2018-03-14T09:54:18.166Z,988.11
2018-03-14T09:55:18.189Z,988.13
2018-03-14T09:56:18.251Z,988.07
2018-03-14T09:57:18.246Z,988.15
2018-03-14T09:58:18.273Z,988.21
2018-03-14T09:59:18.301Z,988.20
2018-03-14T10:00:18.352Z,988.22
2018-03-14T10:01:18.357Z,988.16
2018-03-14T10:02:18.382Z,988.26
2018-03-14T10:03:18.410Z,988.28
2018-03-14T10:04:18.439Z,988.32
2018-03-14T10:05:18.466Z,988.34
2018-03-14T10:06:18.493Z,988.39
2018-03-14T10:07:18.557Z,988.42
2018-03-14T10:08:18.555Z,988.43
2018-03-14T10:09:18.582Z,988.40
2018-03-14T10:10:18.604Z,988.45
2018-03-14T10:11:18.631Z,988.47
2018-03-14T10:12:18.659Z,988.53
2018-03-14T10:13:18.690Z,988.59
2018-03-14T10:14:18.760Z,988.60
2018-03-14T10:15:18.743Z,988.60
2018-03-14T10:16:18.773Z,988.56
2018-03-14T10:17:18.798Z,988.64
2018-03-14T10:18:18.865Z,988.71
2018-03-14T10:19:18.907Z,988.71
2018-03-14T10:20:18.886Z,988.68
2018-03-14T10:21:18.914Z,988.66
2018-03-14T10:22:18.991Z,988.71
2018-03-14T10:23:18.963Z,988.72
2018-03-14T10:24:18.996Z,988.69
2018-03-14T10:25:19.020Z,988.71
2018-03-14T10:26:19.046Z,988.72
2018-03-14T10:27:19.082Z,988.78
2018-03-14T10:28:19.101Z,988.73
2018-03-14T10:29:19.130Z,988.83
2018-03-14T10:30:19.159Z,988.82
2018-03-14T10:31:19.184Z,988.87
2018-03-14T10:32:19.236Z,988.87
2018-03-14T10:33:19.251Z,988.87
2018-03-14T10:34:19.270Z,988.86
2018-03-14T10:35:19.305Z,988.88
2018-03-14T10:36:19.323Z,988.90
2018-03-14T10:37:19.376Z,988.91
2018-03-14T10:38:19.384Z,988.94
2018-03-14T10:39:19.405Z,988.94
2018-03-14T10:40:19.436Z,988.97
2018-03-14T10:41:19.466Z,989.02
2018-03-14T10:42:19.506Z,989.00
2018-03-14T10:43:19.517Z,989.05
2018-03-14T10:44:19.544Z,989.03
2018-03-14T10:45:19.572Z,989.09
2018-03-14T10:46:19.604Z,989.11
2018-03-14T10:47:19.659Z,989.11
2018-03-14T10:48:19.658Z,989.15
2018-03-14T10:49:19.682Z,989.15
2018-03-14T10:50:19.710Z,989.11
2018-03-14T10:51:19.738Z,989.18
2018-03-14T10:52:19.780Z,989.13
2018-03-14T10:53:19.811Z,989.21
2018-03-14T10:54:19.824Z,989.16
2018-03-14T10:55:19.848Z,989.19
2018-03-14T10:56:19.893Z,989.14
2018-03-14T10:57:19.908Z,989.14
2018-03-14T10:58:19.942Z,989.17
2018-03-14T10:59:19.959Z,989.21
2018-03-14T11:00:19.989Z,989.27
2018-03-14T11:01:20.016Z,989.23
2018-03-14T11:02:20.044Z,989.35
2018-03-14T11:03:20.071Z,989.29
2018-03-14T11:04:20.104Z,989.37
2018-03-14T11:05:20.129Z,989.40
2018-03-14T11:06:20.166Z,989.42
2018-03-14T11:07:20.181Z,989.37
2018-03-14T11:08:20.209Z,989.42
2018-03-14T11:09:20.243Z,989.48
2018-03-14T11:10:20.270Z,989.46
2018-03-14T11:11:20.292Z,989.57
2018-03-14T11:12:20.327Z,989.53
2018-03-14T11:13:20.860Z,989.55
2018-03-14T11:14:20.378Z,989.58
2018-03-14T11:15:20.403Z,989.58
2018-03-14T11:16:20.431Z,989.63
2018-03-14T11:17:20.459Z,989.54
2018-03-14T11:18:20.487Z,989.56
2018-03-14T11:19:20.513Z,989.64
2018-03-14T11:20:20.592Z,989.62
2018-03-14T11:21:20.570Z,989.74
2018-03-14T11:22:20.598Z,989.69
2018-03-14T11:23:20.625Z,989.70
2018-03-14T11:24:20.652Z,989.67
2018-03-14T11:25:20.680Z,989.72
2018-03-14T11:26:20.708Z,989.74
2018-03-14T11:27:20.753Z,989.75
2018-03-14T11:28:20.775Z,989.84
2018-03-14T11:29:20.796Z,989.77
2018-03-14T11:30:20.818Z,989.85
2018-03-14T11:31:20.870Z,989.90
2018-03-14T11:32:20.912Z,989.83
2018-03-14T11:33:20.922Z,989.90
2018-03-14T11:34:20.929Z,989.88
2018-03-14T11:35:20.963Z,989.90
2018-03-14T11:36:21.002Z,989.92
2018-03-14T11:37:21.012Z,989.98
2018-03-14T11:38:21.049Z,989.95
2018-03-14T11:39:21.073Z,989.96
2018-03-14T11:40:21.096Z,989.96
2018-03-14T11:41:21.124Z,989.97
2018-03-14T11:42:22.021Z,989.99
2018-03-14T11:43:21.178Z,990.02
2018-03-14T11:44:21.205Z,990.09
2018-03-14T11:45:21.236Z,990.03
2018-03-14T11:46:21.262Z,990.03
2018-03-14T11:47:21.308Z,990.06
2018-03-14T11:48:21.317Z,990.04
2018-03-14T11:49:21.344Z,990.07
2018-03-14T11:50:21.391Z,990.11
2018-03-14T11:51:21.399Z,990.12
2018-03-14T11:52:21.427Z,990.09
2018-03-14T11:53:21.455Z,990.22
2018-03-14T11:54:21.483Z,990.11
2018-03-14T11:55:21.516Z,990.10
2018-03-14T11:56:21.538Z,990.17
2018-03-14T11:57:21.665Z,990.10
2018-03-14T11:58:21.594Z,990.18
2018-03-14T11:59:21.621Z,990.13
2018-03-14T12:00:21.649Z,990.15
2018-03-14T12:01:21.677Z,990.14
2018-03-14T12:02:21.707Z,990.17
2018-03-14T12:03:21.731Z,990.20
2018-03-14T12:04:21.760Z,990.25
2018-03-14T12:05:21.788Z,990.26
2018-03-14T12:06:21.817Z,990.30
2018-03-14T12:07:21.902Z,990.36
2018-03-14T12:08:21.871Z,990.35
2018-03-14T12:09:21.912Z,990.48
2018-03-14T12:10:21.927Z,990.40
2018-03-14T12:11:21.954Z,990.43
2018-03-14T12:12:21.994Z,990.45
2018-03-14T12:13:22.010Z,990.41
2018-03-14T12:14:22.038Z,990.46
2018-03-14T12:15:22.064Z,990.46
2018-03-14T12:16:22.093Z,990.43
2018-03-14T12:17:22.120Z,990.40
2018-03-14T12:18:22.176Z,990.49
2018-03-14T12:19:22.175Z,990.52
2018-03-14T12:20:22.204Z,990.54
2018-03-14T12:21:22.231Z,990.60
2018-03-14T12:22:22.283Z,990.62
2018-03-14T12:23:22.287Z,990.65
2018-03-14T12:24:22.315Z,990.67
2018-03-14T12:25:22.342Z,990.67
2018-03-14T12:26:22.388Z,990.68
2018-03-14T12:27:22.396Z,990.72
2018-03-14T12:28:22.428Z,990.73